Tiempo atmosférico en la estación meteorológica de Morón De Almazán , Soria (978 m.)



Fecha
DESCASC
Temp. máxima en grados centígrados (hora)
DESCASC
Temp. mínima en grados centígrados (hora)
DESCASC
Temp. media en grados centígrados
DESCASC
Racha de viento máxima en m/sg (hora)
DESCASC
Velocidad máxima media en intervalos de 10 minutos(hora)
DESCASC
Precipitaciones diarias en mm
DESCASC
Precipitaciones de 00:00 a 06:00 en mm
DESCASC
Precipitaciones de 06:00 a 12:00 en mm
DESCASC
Precipitaciones de 12:00 a 18:00 en mm
DESCASC
Precipitaciones de 18:00 a 24:00 en mm
DESCASC
21-02-2021 12 (14:10) 3.5 (06:20) 7.8 12.22 (19:40) 8.33 (20:10) 1.4 0 0 0.4 1
20-02-2021 15.3 (13:40) 3 (02:30) 9.2 12.5 (12:10) 8.33 (14:00) 0 0 0 0 0
19-02-2021 15.1 (14:40) 1.7 (08:00) 8.4 14.72 (17:30) 9.72 (14:20) 0 0 0 0 0
18-02-2021 14.7 (15:00) 2.8 (00:00) 8.7 15.28 (14:10) 10.28 (14:10) 0 0 0 0 0
17-02-2021 14.3 (15:00) 1.3 (00:00) 7.8 9.72 (14:00) 6.39 (15:10) 0 0 0 0 0
16-02-2021 14.7 (16:10) 2.3 (00:00) 8.5 13.33 (13:30) 9.17 (13:20) 0 0 0 0 0
15-02-2021 13.6 (16:40) 0.9 (00:00) 7.3 8.61 (11:00) 6.11 (11:00) 0 0 0 0 0
14-02-2021 15.1 (15:00) -2.2 (-00:0) 6.5 8.06 (16:50) 4.72 (23:50) 0 0 0 0 0
13-02-2021 10.8 (15:10) 0.4 (00:00) 5.6 10 (15:00) 6.94 (14:50) 0.2 0.2 0 0 0
12-02-2021 10.2 (16:00) 2.8 (00:00) 6.5 15 (16:40) 9.72 (16:40) 5.2 0.2 4.8 0.2 0
11-02-2021 11.6 (14:20) 0 (00:00) 5.8 10 (19:50) 6.39 (17:00) 0 0 0 0 0
10-02-2021 9.2 (17:00) 0.7 (00:00) 4.9 17.5 (07:50) 11.11 (10:00) 10.6 10.2 0.4 0 0
09-02-2021 7.4 (13:10) -0.1 (00:00) 3.7 19.72 (12:40) 12.5 (12:20) 7.8 0.8 0.4 1.8 4.8
08-02-2021 7.6 (16:00) 2.2 (00:00) 4.9 16.67 (15:50) 11.11 (15:50) 4.4 3 1.2 0.2 0
07-02-2021 7.3 (15:00) -1.1 (-00:0) 3.1 11.67 (15:00) 8.33 (15:10) 1.2 0 0 0 1.2
06-02-2021 11.4 (12:10) 3.6 (00:00) 7.5 10.56 (16:20) 7.22 (16:50) 5 2.2 0 2.8 0
05-02-2021 17.8 (15:20) 0.8 (00:00) 9.3 8.06 (11:40) 5.28 (18:30) 0 0 0 0 0
04-02-2021 15.6 (14:40) 3.9 (00:00) 9.8 10.28 (16:10) 6.11 (16:10) 0 0 0 0 0
03-02-2021 11.3 (16:30) 6 (00:00) 8.7 18.06 (08:10) 11.11 (08:10) 0 0 0 0 0
02-02-2021 11.5 (14:10) 5 (00:00) 8.3 13.61 (22:50) 8.89 (23:20) 0 0 0 0 0
01-02-2021 10.7 (14:30) 5 (00:00) 7.8 21.67 (05:30) 13.61 (05:40) 0 0 0 0 0
31-01-2021 10.5 (15:40) 4 (00:00) 7.3 23.33 (21:10) 15.83 (21:40) 0.2 0 0 0 0.2
30-01-2021 8.9 (13:50) 3.8 (00:00) 6.3 22.22 (14:30) 15.28 (14:40) 4.2 0.6 2.2 0.8 0.6
29-01-2021 12.3 (17:30) 5.7 (00:00) 9 11.39 (12:30) 7.5 (12:30) 0 0 0 0 0
28-01-2021 15.6 (15:10) 5.5 (00:00) 10.6 9.72 (15:20) 6.39 (20:30) 0 0 0 0 0
27-01-2021 13.8 (16:30) 6.4 (00:00) 10.1 12.78 (12:00) 7.78 (16:00) 1.2 0.6 0.6 0 0
26-01-2021 9.6 (16:40) 0.9 (00:00) 5.3 5.28 (02:50) 3.89 (15:30) 1.4 0 0 0.6 0.8
25-01-2021 11.1 (13:00) 4 (00:00) 7.6 16.94 (13:00) 11.11 (13:00) 9 3.4 1.2 4.4 0

Gráficas

Temp. máximas Temp. mínimas Temp. medias Precipitaciones Rachas de viento máximas Velocidades máximas media en intervalos de 10 minutos

Datos horarios

Fecha y hora oficial Temperatura (ºC) Velocidad del viento (km/h) Dirección del viento Racha (km/h) Dirección de racha Precipitación (mm) Presión (hPa) Tendencia (hPa) Humedad (%)
2021-02-23 23:00:00 1.8 3 Este 7 Este 0 -- -- 97
2021-02-23 22:00:00 2.6 5 Nordeste 9 Este 0 -- -- 95
2021-02-23 21:00:00 4 6 Nordeste 12 Nordeste 0 -- -- 95
2021-02-23 20:00:00 5.1 3 Este 8 Sudeste 0 -- -- 90
2021-02-23 19:00:00 8.1 4 Sudeste 15 Este 0 -- -- 78
2021-02-23 18:00:00 12.2 12 Este 18 Este 0 -- -- 61
2021-02-23 17:00:00 12.6 10 Este 25 Sudeste 0 -- -- 60
2021-02-23 16:00:00 12.7 14 Este 24 Este 0 -- -- 63
2021-02-23 15:00:00 12.3 14 Este 24 Este 0 -- -- 64
2021-02-23 14:00:00 11.4 12 Este 20 Este 0 -- -- 65
2021-02-23 13:00:00 10 8 Sudeste 19 Sudeste 0 -- -- 69
2021-02-23 12:00:00 7.8 9 Sudeste 20 Este 0 -- -- 77
2021-02-23 11:00:00 5.6 11 Este 19 Este 0 -- -- 83
2021-02-23 10:00:00 4.3 10 Sudeste 14 Sudeste 0 -- -- 88
2021-02-23 09:00:00 3.4 8 Este 17 Sudeste 0 -- -- 90
2021-02-23 08:00:00 3.3 8 Sudeste 17 Este 0 -- -- 92
2021-02-23 07:00:00 3.4 10 Sudeste 17 Este 0 -- -- 92
2021-02-23 06:00:00 3.6 6 Este 14 Este 0 -- -- 90
2021-02-23 05:00:00 3.7 6 Sudeste 10 Este 0 -- -- 90
2021-02-23 04:00:00 3.6 2 Este 10 Este 0 -- -- 97
2021-02-23 03:00:00 3.5 2 Nordeste 4 Norte 0 -- -- 98
2021-02-23 02:00:00 3.6 0 Calma 4 Norte 0 -- -- 98
2021-02-23 01:00:00 3.4 2 Noroeste 3 Oeste 0 -- -- 98
2021-02-23 00:00:00 3.1 0 Calma 2 Sudeste 0 -- -- 98
2021-02-22 23:00:00 3.3 0 Calma 2 Sur 0 -- -- 97
2021-02-22 22:00:00 3.5 0 Calma 4 Oeste 0 -- -- 97
2021-02-22 21:00:00 4 4 Nordeste 10 Noroeste 0.2 -- -- 96
2021-02-22 20:00:00 3.9 5 Noroeste 12 Noroeste 0.4 -- -- 97
2021-02-22 19:00:00 4.1 7 Noroeste 15 Noroeste 0.6 -- -- 97
2021-02-22 18:00:00 4.2 10 Noroeste 21 Noroeste 0.6 -- -- 96
2021-02-22 17:00:00 4.4 15 Noroeste 25 Oeste 0.4 -- -- 96
2021-02-22 16:00:00 4.9 15 Oeste 26 Oeste 0 -- -- 89
2021-02-22 15:00:00 4.3 18 Oeste 29 Oeste 0 -- -- 94
2021-02-22 14:00:00 4.5 19 Oeste 31 Oeste 0 -- -- 92
2021-02-22 13:00:00 2.8 22 Oeste 32 Oeste 0 -- -- 97
2021-02-22 12:00:00 2.1 21 Oeste 32 Oeste 0 -- -- 99
2021-02-22 11:00:00 1.3 16 Oeste 25 Oeste 0.4 -- -- 99
2021-02-22 10:00:00 0.3 13 Oeste 20 Oeste 0.4 -- -- 100
2021-02-22 09:00:00 -0.1 14 Oeste 28 Oeste 0.2 -- -- 99
2021-02-22 08:00:00 0.1 15 Oeste 30 Oeste 0.2 -- -- 98
2021-02-22 07:00:00 0.8 16 Oeste 29 Oeste 0.6 -- -- 97
2021-02-22 06:00:00 1.2 15 Oeste 29 Oeste 0 -- -- 97
2021-02-22 05:00:00 1.1 19 Oeste 30 Oeste 0 -- -- 98
2021-02-22 04:00:00 0.6 14 Oeste 26 Oeste 0.4 -- -- 98
2021-02-22 03:00:00 0.8 17 Oeste 30 Oeste 0.2 -- -- 98
2021-02-22 02:00:00 1.4 20 Oeste 30 Oeste 1.2 -- -- 97
2021-02-22 01:00:00 2.4 19 Oeste 45 Oeste 2.6 -- -- 96
2021-02-22 00:00:00 7 4 Este 24 Este 0.6 -- -- 94
2021-02-21 23:00:00 7.1 13 Este 33 Este 0.2 -- -- 91
2021-02-21 22:00:00 7.3 13 Este 32 Este 0 -- -- 89
2021-02-21 21:00:00 7.4 21 Este 42 Este 0 -- -- 89
2021-02-21 20:00:00 7.4 28 Este 44 Este 0 -- -- 91
2021-02-21 19:00:00 7.6 29 Este 41 Este 0.2 -- -- 91
2021-02-21 18:00:00 8.2 26 Este 40 Este 0.2 -- -- 88
2021-02-21 17:00:00 9.6 23 Este 34 Este 0 -- -- 79
2021-02-21 16:00:00 9.7 19 Este 33 Este 0.2 -- -- 79
2021-02-21 15:00:00 11.2 23 Este 31 Este 0 -- -- 63
2021-02-21 14:00:00 11.9 23 Este 37 Este 0 -- -- 60
2021-02-21 13:00:00 10.1 25 Este 36 Este 0 -- -- 66
2021-02-21 12:00:00 8.9 23 Este 33 Este 0 -- -- 66
2021-02-21 11:00:00 8.3 19 Este 28 Este 0 -- -- 66
2021-02-21 10:00:00 7.1 3 Nordeste 19 Este 0 -- -- 73
2021-02-21 09:00:00 5.9 16 Este 23 Este 0 -- -- 77
2021-02-21 08:00:00 5.7 18 Este 26 Sudeste 0 -- -- 77
2021-02-21 07:00:00 5.9 14 Este 22 Este 0 -- -- 76
2021-02-21 06:00:00 4 3 Sudeste 16 Este 0 -- -- 83
2021-02-21 05:00:00 4.8 10 Este 14 Este 0 -- -- 80
2021-02-21 04:00:00 4.9 5 Sudeste 18 Sudeste 0 -- -- 78
2021-02-21 03:00:00 6.4 11 Sudeste 23 Sudeste 0 -- -- 70
2021-02-21 02:00:00 5.9 13 Sudeste 21 Sudeste 0 -- -- 73
2021-02-21 01:00:00 7 13 Sudeste 26 Sudeste 0 -- -- 66
2021-02-21 00:00:00 8.2 13 Sudeste 23 Este 0 -- -- 55
2021-02-20 23:00:00 8.9 10 Sudeste 21 Sur 0 -- -- 54
2021-02-20 22:00:00 10.5 13 Sur 24 Sur 0 -- -- 49
2021-02-20 21:00:00 11 14 Sur 24 Sudeste 0 -- -- 45
2021-02-20 20:00:00 12.5 15 Sur 23 Sur 0 -- -- 42
2021-02-20 19:00:00 12.7 10 Sur 23 Sur 0 -- -- 41
2021-02-20 18:00:00 12.9 7 Sudeste 15 Sudeste 0 -- -- 37
2021-02-20 17:00:00 13.5 6 Sur 37 Sur 0 -- -- 34
2021-02-20 16:00:00 14.2 14 Sur 39 Sur 0 -- -- 38
2021-02-20 15:00:00 14.4 21 Sur 42 Sur 0 -- -- 34
2021-02-20 14:00:00 14.6 30 Sur 45 Sur 0 -- -- 37
2021-02-20 13:00:00 14.4 27 Sur 45 Sur 0 -- -- 40
2021-02-20 12:00:00 15 22 Sur 42 Sur 0 -- -- 36
2021-02-20 11:00:00 12.6 14 Sudeste 26 Sudeste 0 -- -- 48
2021-02-20 10:00:00 10.5 12 Este 18 Este 0 -- -- 54
2021-02-20 09:00:00 5.9 9 Sudeste 18 Este 0 -- -- 66
2021-02-20 08:00:00 5.4 9 Sudeste 15 Este 0 -- -- 67
2021-02-20 07:00:00 5.6 12 Este 18 Este 0 -- -- 65
2021-02-20 06:00:00 5.3 11 Este 17 Este 0 -- -- 64
2021-02-20 05:00:00 5.6 13 Este 20 Este 0 -- -- 62
2021-02-20 04:00:00 5.4 9 Sudeste 17 Sudeste 0 -- -- 62
2021-02-20 03:00:00 5 8 Sudeste 20 Sudeste 0 -- -- 65
2021-02-20 02:00:00 4.2 4 Este 13 Sur 0 -- -- 67
2021-02-20 01:00:00 4.1 5 Nordeste 10 Nordeste 0 -- -- 71
2021-02-20 00:00:00 4 5 Nordeste 8 Nordeste 0 -- -- 74
2021-02-19 23:00:00 4 3 Sudeste 12 Sur 0 -- -- 78
2021-02-19 22:00:00 5.8 4 Sudeste 8 Este 0 -- -- 68
2021-02-19 21:00:00 4.5 4 Este 8 Este 0 -- -- 74
2021-02-19 20:00:00 7.3 4 Sur 15 Sudoeste 0 -- -- 60
2021-02-19 19:00:00 9.2 10 Sudoeste 40 Sudoeste 0 -- -- 52
2021-02-19 18:00:00 13.2 27 Sudoeste 53 Sudoeste 0 -- -- 39
2021-02-19 17:00:00 14.6 34 Sudoeste 49 Sur 0 -- -- 34
2021-02-19 16:00:00 15 31 Sudoeste 53 Oeste 0 -- -- 34
2021-02-19 15:00:00 14.8 33 Sudoeste 52 Sur 0 -- -- 37
2021-02-19 14:00:00 14.4 31 Sudoeste 50 Sur 0 -- -- 43
2021-02-19 13:00:00 13.6 26 Sudoeste 40 Sudoeste 0 -- -- 47
2021-02-19 12:00:00 12.8 26 Sudoeste 41 Sudoeste 0 -- -- 56
2021-02-19 11:00:00 11.1 19 Sur 32 Sur 0 -- -- 59
2021-02-19 10:00:00 8.3 14 Sur 22 Sur 0 -- -- 70
2021-02-19 09:00:00 4.5 0 Calma 9 Este 0 -- -- 87
2021-02-19 08:00:00 1.7 5 Este 15 Sur 0 -- -- 90
2021-02-19 07:00:00 3.7 11 Sur 19 Sur 0 -- -- 83
2021-02-19 06:00:00 3.8 14 Sur 21 Sur 0 -- -- 82
2021-02-19 05:00:00 4.4 16 Sur 22 Sudoeste 0 -- -- 79
2021-02-19 04:00:00 4.5 17 Sur 24 Sudoeste 0 -- -- 79
2021-02-19 03:00:00 4.7 15 Sudoeste 22 Sudoeste 0 -- -- 76
2021-02-19 02:00:00 5 15 Sudoeste 24 Sur 0 -- -- 72
2021-02-19 01:00:00 4.4 13 Sudoeste 20 Sudoeste 0 -- -- 71
2021-02-19 00:00:00 5 11 Sudoeste 24 Sudoeste 0 -- -- 67
2021-02-18 23:00:00 6.6 15 Sur 25 Sur 0 -- -- 62
2021-02-18 22:00:00 7.4 17 Sudoeste 27 Sudoeste 0 -- -- 62
2021-02-18 21:00:00 7.9 15 Sudoeste 23 Sur 0 -- -- 61
2021-02-18 20:00:00 8.4 12 Sudoeste 24 Sudoeste 0 -- -- 63
2021-02-18 19:00:00 10.1 16 Sudoeste 31 Sudoeste 0 -- -- 60
2021-02-18 18:00:00 12.4 21 Sudoeste 41 Sur 0 -- -- 54
2021-02-18 17:00:00 13.3 24 Sudoeste 45 Sudoeste 0 -- -- 47
2021-02-18 16:00:00 14.4 27 Sudoeste 49 Sudoeste 0 -- -- 44
2021-02-18 15:00:00 14.7 31 Sudoeste 55 Sudoeste 0 -- -- 44
2021-02-18 14:00:00 14.3 33 Sudoeste 52 Sudoeste 0 -- -- 45
2021-02-18 13:00:00 13.9 32 Sudoeste 46 Sudoeste 0 -- -- 47
2021-02-18 12:00:00 13.2 27 Sudoeste 43 Sudoeste 0 -- -- 53
2021-02-18 11:00:00 10.8 20 Sur 33 Sudoeste 0 -- -- 62
2021-02-18 10:00:00 9.7 13 Sur 23 Sur 0 -- -- 65
2021-02-18 09:00:00 5.4 9 Sudoeste 15 Sur 0 -- -- 75
2021-02-18 08:00:00 3.3 7 Sudoeste 19 Sudoeste 0 -- -- 81
2021-02-18 07:00:00 3.6 13 Sur 17 Sudoeste 0 -- -- 82
2021-02-18 06:00:00 3.6 5 Sur 15 Sur 0 -- -- 84
2021-02-18 05:00:00 4.2 12 Sudoeste 20 Sudoeste 0 -- -- 82
2021-02-18 04:00:00 3.1 8 Sur 18 Sudoeste 0 -- -- 87
2021-02-18 03:00:00 5 9 Sur 18 Sur 0 -- -- 80
2021-02-18 02:00:00 5.5 8 Sur 19 Sur 0 -- -- 78
2021-02-18 01:00:00 6.5 13 Sur 23 Sur 0 -- -- 75
2021-02-18 00:00:00 8 17 Sur 26 Sur 0 -- -- 70
2021-02-17 23:00:00 8 17 Sur 27 Sur 0 -- -- 68
2021-02-17 22:00:00 8.4 19 Sur 31 Sur 0 -- -- 65
2021-02-17 21:00:00 8.8 15 Sur 25 Sur 0 -- -- 65
2021-02-17 20:00:00 8.3 9 Sur 19 Sur 0 -- -- 69
2021-02-17 19:00:00 9.4 13 Sur 21 Sur 0 -- -- 69
2021-02-17 18:00:00 11.8 10 Sudoeste 29 Sudoeste 0 -- -- 65
2021-02-17 17:00:00 13.9 16 Sudoeste 32 Sudoeste 0 -- -- 58
2021-02-17 16:00:00 13.3 20 Sudoeste 35 Sur 0 -- -- 58
2021-02-17 15:00:00 14.3 21 Sudoeste 34 Sudoeste 0 -- -- 56
2021-02-17 14:00:00 12.8 23 Sudoeste 35 Sudoeste 0 -- -- 65
2021-02-17 13:00:00 11 19 Sudoeste 30 Sudoeste 0 -- -- 73
2021-02-17 12:00:00 11.1 14 Sudoeste 26 Sudoeste 0 -- -- 70
2021-02-17 11:00:00 10.4 12 Sudoeste 18 Sur 0 -- -- 74
2021-02-17 10:00:00 8 2 Sur 6 Sudeste 0 -- -- 79
2021-02-17 09:00:00 5.6 0 Calma 8 Sudoeste 0 -- -- 88
2021-02-17 08:00:00 5.3 4 Sur 6 Sur 0 -- -- 88
2021-02-17 07:00:00 4.8 3 Este 8 Nordeste 0 -- -- 92
2021-02-17 06:00:00 4.7 4 Este 9 Este 0 -- -- 97
2021-02-17 05:00:00 3.4 4 Nordeste 7 Nordeste 0 -- -- 98
2021-02-17 04:00:00 1.9 2 Este 8 Nordeste 0 -- -- 98
2021-02-17 03:00:00 1.4 3 Este 6 Nordeste 0 -- -- 98
2021-02-17 02:00:00 1.6 4 Este 8 Nordeste 0 -- -- 96
2021-02-17 01:00:00 3.1 0 Calma 9 Sudoeste 0 -- -- 93
2021-02-17 00:00:00 5.2 5 Sudoeste 17 Sur 0 -- -- 90
2021-02-16 23:00:00 6.5 10 Sudoeste 19 Sur 0 -- -- 87
2021-02-16 22:00:00 6.3 13 Sudoeste 18 Sur 0 -- -- 87
2021-02-16 21:00:00 6.8 13 Sudoeste 17 Sur 0 -- -- 85
2021-02-16 20:00:00 8.9 13 Sudoeste 23 Sudoeste 0 -- -- 77
2021-02-16 19:00:00 8.8 15 Sudoeste 27 Sudoeste 0 -- -- 75
2021-02-16 18:00:00 11.1 19 Sudoeste 36 Sudoeste 0 -- -- 65
2021-02-16 17:00:00 12.3 26 Sudoeste 40 Sudoeste 0 -- -- 60
2021-02-16 16:00:00 14.3 22 Sudoeste 41 Sudoeste 0 -- -- 54
2021-02-16 15:00:00 13.6 26 Sudoeste 44 Sur 0 -- -- 57
2021-02-16 14:00:00 12.6 27 Sudoeste 48 Sudoeste 0 -- -- 61
2021-02-16 13:00:00 13.1 29 Sur 43 Sur 0 -- -- 62
2021-02-16 12:00:00 11.2 32 Sur 45 Sur 0 -- -- 68
2021-02-16 11:00:00 9.4 25 Sur 39 Sur 0 -- -- 77
2021-02-16 10:00:00 7.4 9 Sur 24 Sur 0 -- -- 82
2021-02-16 09:00:00 4.5 6 Este 24 Sur 0 -- -- 89
2021-02-16 08:00:00 4.3 13 Sur 28 Sur 0 -- -- 89
2021-02-16 07:00:00 3.1 6 Nordeste 17 Sudeste 0 -- -- 92
2021-02-16 06:00:00 3.7 10 Sudeste 18 Sudeste 0 -- -- 92
2021-02-16 05:00:00 3.4 6 Nordeste 12 Nordeste 0 -- -- 93
2021-02-16 04:00:00 4 4 Nordeste 14 Sudeste 0 -- -- 91
2021-02-16 03:00:00 4.6 10 Sudeste 17 Sudeste 0 -- -- 87
2021-02-16 02:00:00 4.6 9 Sudeste 18 Sudeste 0 -- -- 87
2021-02-16 01:00:00 5.6 10 Sur 25 Sur 0 -- -- 84
2021-02-16 00:00:00 5.7 10 Sudeste 16 Este 0 -- -- 88
2021-02-15 23:00:00 5.3 5 Sudeste 15 Este 0 -- -- 93
2021-02-15 22:00:00 4.4 4 Este 11 Sur 0 -- -- 93
2021-02-15 21:00:00 5.7 5 Sudeste 13 Sudeste 0 -- -- 90
2021-02-15 20:00:00 6.8 9 Sudeste 20 Sur 0 -- -- 88
2021-02-15 19:00:00 7.9 8 Sur 20 Sur 0 -- -- 83
2021-02-15 18:00:00 11.7 10 Sur 24 Sur 0 -- -- 67
2021-02-15 17:00:00 13.5 12 Sur 24 Sur 0 -- -- 61
2021-02-15 16:00:00 13.2 15 Sur 24 Sur 0 -- -- 62
2021-02-15 15:00:00 12.6 15 Sur 23 Sur 0 -- -- 64
2021-02-15 14:00:00 12.2 11 Sur 24 Sur 0 -- -- 68
2021-02-15 13:00:00 10.1 17 Sur 30 Sur 0 -- -- 72
2021-02-15 12:00:00 7.6 17 Sur 30 Sur 0 -- -- 84
2021-02-15 11:00:00 7.7 22 Sur 31 Sur 0 -- -- 83
2021-02-15 10:00:00 6.7 18 Sur 28 Sur 0 -- -- 86
2021-02-15 09:00:00 4.9 8 Sur 15 Sur 0 -- -- 94
2021-02-15 08:00:00 2 5 Este 9 Sudeste 0 -- -- 98
2021-02-15 07:00:00 1.4 3 Este 5 Este 0 -- -- 97
2021-02-15 06:00:00 1.6 4 Este 14 Sudeste 0 -- -- 96
2021-02-15 05:00:00 3.7 10 Sudeste 15 Sudeste 0 -- -- 95
2021-02-15 04:00:00 3.1 5 Este 9 Sudeste 0 -- -- 99
2021-02-15 03:00:00 3.6 6 Sudeste 17 Este 0 -- -- 100
2021-02-15 02:00:00 3.4 8 Este 15 Este 0 -- -- 100
2021-02-15 01:00:00 4.1 8 Este 20 Este 0 -- -- 99
2021-02-15 00:00:00 4.8 15 Este 22 Este 0 -- -- 97
2021-02-14 23:00:00 5.6 15 Este 24 Sudeste 0 -- -- 93
2021-02-14 22:00:00 6.6 15 Este 22 Este 0 -- -- 88
2021-02-14 21:00:00 7.2 13 Este 17 Sudeste 0 -- -- 84
2021-02-14 20:00:00 6.2 0 Calma 10 Sudeste 0 -- -- 80
2021-02-14 19:00:00 9 7 Sudeste 20 Sur 0 -- -- 69
2021-02-14 18:00:00 11.3 14 Sur 27 Sur 0 -- -- 62
2021-02-14 17:00:00 13.4 10 Sur 29 Sur 0 -- -- 56
2021-02-14 16:00:00 14.7 14 Sur 23 Sur 0 -- -- 50
2021-02-14 15:00:00 15.1 9 Sudeste 19 Sur 0 -- -- 56
2021-02-14 14:00:00 14.2 12 Sur 22 Sur 0 -- -- 55
2021-02-14 13:00:00 14.1 5 Este 14 Sudeste 0 -- -- 61
2021-02-14 12:00:00 11.5 7 Sudeste 13 Este 0 -- -- 70
2021-02-14 11:00:00 8.8 6 Sudeste 9 Sudeste 0 -- -- 82
2021-02-14 10:00:00 5 2 Este 5 Este 0 -- -- 96
2021-02-14 09:00:00 -0.6 0 Calma 5 Este 0 -- -- 100
2021-02-14 08:00:00 -2.1 3 Este 4 Este 0 -- -- 100
2021-02-14 07:00:00 -1.9 2 Este 4 Este 0 -- -- 100
2021-02-14 06:00:00 -1.3 2 Este 8 Este 0 -- -- 100
2021-02-14 05:00:00 -0.8 6 Este 9 Este 0 -- -- 100
2021-02-14 04:00:00 -0.9 3 Este 5 Este 0 -- -- 100
2021-02-14 03:00:00 -0.4 -- -- -- -- 0 -- -- 100
2021-02-14 02:00:00 0.9 5 Oeste 7 Oeste 0 -- -- 100
2021-02-14 01:00:00 0 6 Oeste 9 Noroeste 0 -- -- 100
2021-02-14 00:00:00 0.4 0 Calma 4 Noroeste 0 -- -- 98
2021-02-13 23:00:00 1 0 Calma 5 Este 0 -- -- 98
2021-02-13 22:00:00 3.2 6 Sudoeste 10 Sudoeste 0 -- -- 97
2021-02-13 21:00:00 4.4 4 Noroeste 12 Oeste 0 -- -- 93
2021-02-13 20:00:00 5.4 4 Oeste 12 Oeste 0 -- -- 91
2021-02-13 19:00:00 6.5 8 Oeste 25 Noroeste 0 -- -- 84
2021-02-13 18:00:00 9.6 17 Oeste 33 Oeste 0 -- -- 71
2021-02-13 17:00:00 9.9 23 Oeste 35 Oeste 0 -- -- 69
2021-02-13 16:00:00 10.1 18 Oeste 32 Oeste 0 -- -- 62
2021-02-13 15:00:00 10.3 24 Oeste 36 Oeste 0 -- -- 71
2021-02-13 14:00:00 7.5 19 Oeste 29 Oeste 0 -- -- 85
2021-02-13 13:00:00 6.2 17 Oeste 26 Oeste 0 -- -- 89
2021-02-13 08:00:00 -- -- -- -- -- -- -- -- --
2021-02-13 07:00:00 2.3 3 Oeste 12 Oeste 0 -- -- 100
2021-02-13 06:00:00 1.4 3 Oeste 13 Oeste 0.2 -- -- 100
2021-02-13 05:00:00 1.8 8 Oeste 15 Oeste 0 -- -- 99
2021-02-13 04:00:00 2.2 12 Oeste 19 Oeste 0 -- -- 99
2021-02-13 03:00:00 2.7 11 Oeste 15 Oeste 0 -- -- 100
2021-02-13 02:00:00 3.3 5 Noroeste 11 Noroeste 0 -- -- 99
2021-02-13 01:00:00 3.6 5 Noroeste 8 Noroeste 0 -- -- 99
2021-02-13 00:00:00 3.1 0 Calma 5 Norte 0 -- -- 99
2021-02-12 23:00:00 3.6 3 Noroeste 10 Oeste 0 -- -- 99
2021-02-12 22:00:00 4.7 9 Oeste 18 Oeste 0 -- -- 96
2021-02-12 21:00:00 5.1 6 Oeste 21 Sudoeste 0 -- -- 95
2021-02-12 20:00:00 5.8 8 Sudoeste 27 Oeste 0 -- -- 94
2021-02-12 19:00:00 7.1 22 Oeste 45 Noroeste 0 -- -- 86
2021-02-12 18:00:00 8.2 30 Noroeste 47 Oeste 0 -- -- 86
2021-02-12 17:00:00 9.5 30 Oeste 54 Oeste 0 -- -- 79
2021-02-12 16:00:00 10.2 34 Oeste 51 Oeste 0 -- -- 79
2021-02-12 15:00:00 8.3 28 Oeste 49 Oeste 0 -- -- 85
2021-02-12 14:00:00 7.3 29 Oeste 48 Oeste 0 -- -- 91
2021-02-12 13:00:00 7.9 27 Oeste 46 Oeste 0.2 -- -- 89
2021-02-12 12:00:00 6.7 26 Oeste 42 Oeste 0.2 -- -- 92
2021-02-12 11:00:00 6.9 25 Oeste 41 Oeste 0 -- -- 90
2021-02-12 10:00:00 7.1 25 Oeste 41 Oeste 0.2 -- -- 92
2021-02-12 09:00:00 7.1 27 Oeste 41 Oeste 0.6 -- -- 94
2021-02-12 08:00:00 7.1 17 Sudoeste 28 Sudoeste 2.4 -- -- 91
2021-02-12 07:00:00 6.7 10 Noroeste 26 Oeste 1.4 -- -- 97
2021-02-12 06:00:00 8.2 18 Oeste 40 Sudoeste 0.2 -- -- 91
2021-02-12 05:00:00 8.6 26 Sudoeste 41 Sudoeste 0 -- -- 89
2021-02-12 04:00:00 8.2 23 Sudoeste 38 Sur 0 -- -- 90
2021-02-12 03:00:00 9.1 17 Sudoeste 30 Sur 0 -- -- 94
2021-02-12 02:00:00 9.4 20 Sudoeste 41 Sudoeste 0 -- -- 92
2021-02-12 01:00:00 9.2 16 Sudoeste 30 Sur 0 -- -- 93
2021-02-12 00:00:00 8.1 15 Sudoeste 29 Sudoeste 0 -- -- 94
2021-02-11 23:00:00 8.4 15 Sudoeste 32 Sudoeste 0 -- -- 94
2021-02-11 22:00:00 8.7 16 Sudoeste 34 Sudoeste 0 -- -- 90
2021-02-11 21:00:00 8.9 17 Sudoeste 30 Sudoeste 0 -- -- 91
2021-02-11 20:00:00 9.3 19 Sudoeste 36 Sudoeste 0 -- -- 90
2021-02-11 19:00:00 9.1 19 Sudoeste 32 Sudoeste 0 -- -- 89
2021-02-11 18:00:00 9.4 22 Sudoeste 35 Sudoeste 0 -- -- 88
2021-02-11 17:00:00 10.1 23 Sudoeste 35 Sudoeste 0 -- -- 83
2021-02-11 16:00:00 11.2 19 Sudoeste 32 Sudoeste 0 -- -- 79
2021-02-11 15:00:00 10.7 18 Sudoeste 29 Sudoeste 0 -- -- 81
2021-02-11 14:00:00 11.2 17 Sudoeste 26 Sudoeste 0 -- -- 77
2021-02-11 13:00:00 11.5 14 Sudoeste 26 Sudoeste 0 -- -- 75
2021-02-11 12:00:00 9.3 15 Sudoeste 35 Sur 0 -- -- 84
2021-02-11 11:00:00 9.1 16 Sudoeste 29 Sudoeste 0 -- -- 85
2021-02-11 10:00:00 6.7 8 Sudoeste 12 Sudoeste 0 -- -- 91
2021-02-11 09:00:00 5.6 6 Oeste 10 Oeste 0 -- -- 90
2021-02-11 08:00:00 4.5 5 Oeste 10 Oeste 0 -- -- 93
2021-02-11 07:00:00 4.2 4 Oeste 9 Oeste 0 -- -- 90
2021-02-11 06:00:00 3.9 4 Oeste 9 Oeste 0 -- -- 90
2021-02-11 05:00:00 4.4 6 Oeste 26 Oeste 0 -- -- 87
2021-02-11 04:00:00 4.2 14 Sudoeste 22 Sudoeste 0 -- -- 86
2021-02-11 03:00:00 2 4 Oeste 8 Oeste 0 -- -- 93
2021-02-11 02:00:00 1.4 3 Sudeste 6 Sur 0 -- -- 92
2021-02-11 01:00:00 0 0 Calma 8 Oeste 0 -- -- 93
2021-02-11 00:00:00 1.9 5 Oeste 10 Oeste 0 -- -- 91
2021-02-10 23:00:00 2.8 8 Oeste 12 Oeste 0 -- -- 86
2021-02-10 22:00:00 3.3 7 Oeste 21 Oeste 0 -- -- 85
2021-02-10 21:00:00 5.1 12 Sudoeste 21 Sudoeste 0 -- -- 76
2021-02-10 20:00:00 4.3 10 Sudoeste 18 Oeste 0 -- -- 78
2021-02-10 19:00:00 4.6 9 Oeste 17 Oeste 0 -- -- 83
2021-02-10 18:00:00 6.7 10 Oeste 30 Oeste 0 -- -- 73
2021-02-10 17:00:00 9.2 18 Oeste 39 Oeste 0 -- -- 60
2021-02-10 16:00:00 8.2 22 Oeste 43 Oeste 0 -- -- 65
2021-02-10 15:00:00 8.8 26 Oeste 42 Oeste 0 -- -- 61
2021-02-10 14:00:00 7.8 27 Oeste 52 Oeste 0 -- -- 65
2021-02-10 13:00:00 7.2 29 Oeste 50 Oeste 0 -- -- 69
2021-02-10 12:00:00 5.3 31 Oeste 53 Oeste 0 -- -- 79
2021-02-10 11:00:00 4.2 32 Oeste 53 Oeste 0.2 -- -- 85
2021-02-10 10:00:00 4.3 40 Oeste 59 Oeste 0.2 -- -- 88
2021-02-10 09:00:00 2.8 34 Oeste 58 Oeste 0 -- -- 94
2021-02-10 08:00:00 2.8 40 Oeste 63 Oeste 0 -- -- 90
2021-02-10 07:00:00 2.6 33 Oeste 51 Oeste 0 -- -- 90
2021-02-10 06:00:00 1.7 11 Sudoeste 24 Sudoeste 1 -- -- 99
2021-02-10 05:00:00 1.8 14 Sudoeste 26 Sudoeste 3 -- -- 96
2021-02-10 04:00:00 2.4 23 Sudoeste 39 Sudoeste 1.6 -- -- 94
2021-02-10 03:00:00 2.4 5 Oeste 27 Sudoeste 0.2 -- -- 95
2021-02-10 02:00:00 1.4 13 Oeste 45 Oeste 3.6 -- -- 97
2021-02-10 01:00:00 1.8 3 Oeste 16 Oeste 0.8 -- -- 98
2021-02-10 00:00:00 0.7 0 Calma 5 Oeste 0.6 -- -- 99
2021-02-09 23:00:00 0.2 0 Calma 6 Norte 0.4 -- -- 100
2021-02-09 22:00:00 0 0 Calma 23 Oeste 0.4 -- -- 99
2021-02-09 21:00:00 0.7 21 Noroeste 30 Noroeste 3.4 -- -- 96
2021-02-09 20:00:00 3 0 Calma 8 Noroeste 0 -- -- 95
2021-02-09 19:00:00 2.2 5 Noroeste 12 Oeste 0 -- -- 95
2021-02-09 18:00:00 3.1 7 Oeste 22 Noroeste 0.2 -- -- 93
2021-02-09 17:00:00 3.1 15 Oeste 33 Oeste 0 -- -- 93
2021-02-09 16:00:00 2.8 31 Oeste 64 Sudoeste 1.4 -- -- 95
2021-02-09 15:00:00 6.8 35 Sudoeste 69 Sudoeste 0.2 -- -- 89
2021-02-09 14:00:00 7.2 45 Sudoeste 71 Sur 0 -- -- 85
2021-02-09 13:00:00 7.3 40 Sudoeste 71 Sudoeste 0 -- -- 83
2021-02-09 12:00:00 7 41 Sur 65 Sudoeste 0 -- -- 86
2021-02-09 11:00:00 6.4 34 Sudoeste 57 Sur 0 -- -- 86
2021-02-09 10:00:00 5.3 27 Sudoeste 49 Sudoeste 0 -- -- 91
2021-02-09 09:00:00 3.9 17 Sudoeste 42 Sur 0 -- -- 91
2021-02-09 08:00:00 3 24 Sudoeste 44 Sudoeste 0 -- -- 93
2021-02-09 07:00:00 2.9 25 Sudoeste 42 Sudoeste 0.4 -- -- 93
2021-02-09 06:00:00 3.2 22 Sudoeste 40 Sudoeste 0.4 -- -- 94
2021-02-09 05:00:00 3.8 15 Sudoeste 28 Sudoeste 0.2 -- -- 95
2021-02-09 04:00:00 4.2 18 Sudoeste 30 Sudoeste 0 -- -- 92
2021-02-09 03:00:00 4.4 14 Sudoeste 24 Sudoeste 0 -- -- 92
2021-02-09 02:00:00 4.5 15 Sudoeste 41 Sudoeste 0 -- -- 92
2021-02-09 01:00:00 4.5 15 Sudoeste 44 Sudoeste 0.2 -- -- 93
2021-02-09 00:00:00 5.2 21 Oeste 36 Oeste 0 -- -- 87
2021-02-08 23:00:00 5 23 Oeste 41 Oeste 0 -- -- 88
2021-02-08 22:00:00 5 26 Oeste 40 Oeste 0 -- -- 86
2021-02-08 21:00:00 4.7 28 Oeste 47 Oeste 0 -- -- 88
2021-02-08 20:00:00 4.8 27 Oeste 40 Oeste 0 -- -- 86
2021-02-08 19:00:00 4.7 29 Oeste 47 Oeste 0 -- -- 87
2021-02-08 18:00:00 5.3 26 Oeste 49 Oeste 0 -- -- 82
2021-02-08 17:00:00 6.3 30 Oeste 54 Sudoeste 0 -- -- 75
2021-02-08 16:00:00 7.6 39 Oeste 60 Oeste 0 -- -- 74
2021-02-08 15:00:00 6.7 31 Oeste 51 Oeste 0.2 -- -- 79
2021-02-08 14:00:00 6.8 32 Oeste 60 Oeste 0 -- -- 80
2021-02-08 13:00:00 5.5 27 Oeste 58 Oeste 0 -- -- 85
2021-02-08 12:00:00 6.2 32 Oeste 55 Oeste 0 -- -- 78
2021-02-08 11:00:00 5.2 33 Oeste 50 Oeste 0 -- -- 83
2021-02-08 10:00:00 3.9 21 Oeste 31 Oeste 0.8 -- -- 94
2021-02-08 09:00:00 3.6 18 Sudoeste 33 Sudoeste 0 -- -- 93
2021-02-08 08:00:00 3.5 21 Sudoeste 46 Sudoeste 0 -- -- 94
2021-02-08 07:00:00 2.7 15 Sudoeste 49 Sudoeste 0.4 -- -- 93
2021-02-08 06:00:00 3.6 30 Sudoeste 49 Sudoeste 0.4 -- -- 93
2021-02-08 05:00:00 3.9 33 Sudoeste 52 Sudoeste 0.2 -- -- 93
2021-02-08 04:00:00 3.6 19 Sudoeste 48 Sudoeste 0.8 -- -- 95
2021-02-08 03:00:00 3.3 31 Sudoeste 47 Sur 0.4 -- -- 98
2021-02-08 02:00:00 3.3 27 Sudoeste 44 Sur 0.2 -- -- 99
2021-02-08 01:00:00 3.6 14 Sudoeste 27 Sudoeste 1 -- -- 100
2021-02-08 00:00:00 2.2 8 Oeste 17 Oeste 0.6 -- -- 98
2021-02-07 23:00:00 2.1 12 Oeste 25 Oeste 0.2 -- -- 98
2021-02-07 22:00:00 1.9 17 Oeste 28 Oeste 0.4 -- -- 97
2021-02-07 21:00:00 2.3 21 Oeste 35 Oeste 0 -- -- 94
2021-02-07 20:00:00 3.7 19 Oeste 31 Oeste 0 -- -- 88
2021-02-07 19:00:00 4.7 22 Oeste 38 Oeste 0 -- -- 74
2021-02-07 18:00:00 5.4 22 Oeste 41 Oeste 0 -- -- 70
2021-02-07 17:00:00 5.9 23 Oeste 41 Oeste 0 -- -- 67
2021-02-07 16:00:00 6.4 22 Oeste 40 Oeste 0 -- -- 66
2021-02-07 15:00:00 7.3 28 Oeste 42 Oeste 0 -- -- 62
2021-02-07 14:00:00 6.9 27 Oeste 40 Oeste 0 -- -- 61
2021-02-07 13:00:00 5.8 25 Oeste 39 Oeste 0 -- -- 64
2021-02-07 12:00:00 4.6 23 Oeste 34 Oeste 0 -- -- 71
2021-02-07 11:00:00 3.1 19 Oeste 32 Oeste 0 -- -- 80
2021-02-07 10:00:00 1.1 15 Oeste 23 Oeste 0 -- -- 88
2021-02-07 09:00:00 -0.3 12 Noroeste 18 Noroeste 0 -- -- 93
2021-02-07 08:00:00 -0.8 14 Noroeste 22 Oeste 0 -- -- 95
2021-02-07 07:00:00 0.3 10 Oeste 22 Oeste 0 -- -- 94
2021-02-07 06:00:00 1.9 12 Oeste 20 Oeste 0 -- -- 91
2021-02-07 05:00:00 2.3 0 Calma 9 Noroeste 0 -- -- 85
2021-02-07 04:00:00 2.2 4 Norte 11 Noroeste 0 -- -- 88
2021-02-07 03:00:00 2.3 6 Noroeste 17 Noroeste 0 -- -- 91
2021-02-07 02:00:00 3 9 Norte 22 Norte 0 -- -- 82
2021-02-07 01:00:00 3.3 14 Norte 27 Norte 0 -- -- 82
2021-02-07 00:00:00 3.6 21 Norte 28 Norte 0 -- -- 81
2021-02-06 23:00:00 3.7 19 Norte 37 Norte 0 -- -- 82
2021-02-06 22:00:00 4.3 9 Nordeste 24 Norte 0 -- -- 80
2021-02-06 21:00:00 4.5 6 Nordeste 24 Norte 0 -- -- 82
2021-02-06 20:00:00 4.8 22 Norte 34 Norte 0 -- -- 80
2021-02-06 19:00:00 5.4 9 Nordeste 31 Norte 0 -- -- 80
2021-02-06 18:00:00 5.7 9 Norte 24 Norte 0.6 -- -- 82
2021-02-06 17:00:00 5 22 Norte 38 Norte 0.4 -- -- 88
2021-02-06 16:00:00 7 5 Oeste 26 Oeste 1.8 -- -- 93
2021-02-06 15:00:00 7.9 17 Noroeste 29 Noroeste 0 -- -- 82
2021-02-06 14:00:00 11 18 Sudoeste 32 Sudoeste 0 -- -- 65
2021-02-06 13:00:00 10.2 18 Sudoeste 32 Sudoeste 0 -- -- 66
2021-02-06 12:00:00 10.2 20 Sudoeste 34 Sudoeste 0 -- -- 74
2021-02-06 11:00:00 8.3 21 Sudoeste 36 Sudoeste 0 -- -- 81
2021-02-06 10:00:00 7.3 14 Sudoeste 26 Sudoeste 0 -- -- 86
2021-02-06 09:00:00 6.4 5 Sudoeste 23 Sudoeste 0 -- -- 90
2021-02-06 08:00:00 5.4 8 Sur 18 Sur 0 -- -- 90
2021-02-06 07:00:00 5.8 0 Calma 10 Este 0 -- -- 94
2021-02-06 06:00:00 5.9 5 Sudeste 12 Este 0 -- -- 93
2021-02-06 05:00:00 5.6 5 Este 7 Este 0 -- -- 94
2021-02-06 04:00:00 5.9 3 Este 17 Este 0 -- -- 90
2021-02-06 03:00:00 5.7 4 Sudeste 11 Nordeste 0 -- -- 92
2021-02-06 02:00:00 5.4 6 Nordeste 20 Sur 0.2 -- -- 94
2021-02-06 01:00:00 6.1 17 Sur 34 Sur 2 -- -- 91
2021-02-06 00:00:00 7 11 Este 18 Este 0 -- -- 92
2021-02-05 23:00:00 5.4 7 Este 10 Este 0 -- -- 95
2021-02-05 22:00:00 6.2 5 Sudeste 14 Este 0 -- -- 94
2021-02-05 21:00:00 6.8 13 Sudeste 20 Sudeste 0 -- -- 89
2021-02-05 20:00:00 7.6 14 Este 22 Este 0 -- -- 85
2021-02-05 19:00:00 8.8 14 Sudeste 29 Este 0 -- -- 77
2021-02-05 18:00:00 12 15 Este 26 Este 0 -- -- 63
2021-02-05 17:00:00 16.1 15 Este 23 Este 0 -- -- 50
2021-02-05 16:00:00 17 12 Este 19 Este 0 -- -- 45
2021-02-05 15:00:00 16.8 7 Sudeste 18 Este 0 -- -- 46
2021-02-05 14:00:00 16 9 Este 23 Este 0 -- -- 48
2021-02-05 13:00:00 13.9 15 Sudeste 25 Este 0 -- -- 57
2021-02-05 12:00:00 13.1 17 Sudeste 29 Este 0 -- -- 58
2021-02-05 11:00:00 11.5 5 Sudeste 10 Este 0 -- -- 73
2021-02-05 10:00:00 6 0 Calma 6 Nordeste 0 -- -- 94
2021-02-05 09:00:00 1.1 2 Este 4 Este 0 -- -- 99
2021-02-05 08:00:00 1.4 3 Noroeste 4 Noroeste 0 -- -- 99
2021-02-05 07:00:00 2.4 0 Calma 3 Sur 0 -- -- 98
2021-02-05 06:00:00 3.2 4 Nordeste 9 Sudeste 0 -- -- 97
2021-02-05 05:00:00 3.7 4 Sudeste 11 Este 0 -- -- 97
2021-02-05 04:00:00 3.6 6 Este 9 Este 0 -- -- 99
2021-02-05 03:00:00 2.9 5 Este 6 Este 0 -- -- 97
2021-02-05 02:00:00 3.1 4 Nordeste 8 Este 0 -- -- 97
2021-02-05 01:00:00 3.9 2 Sudeste 8 Nordeste 0 -- -- 95
2021-02-05 00:00:00 4.1 4 Este 6 Este 0 -- -- 96
2021-02-04 23:00:00 4.6 3 Este 9 Sudeste 0 -- -- 93
2021-02-04 22:00:00 6.1 3 Sudeste 8 Sur 0 -- -- 89
2021-02-04 21:00:00 6.6 3 Este 9 Nordeste 0 -- -- 86
2021-02-04 20:00:00 7.7 6 Nordeste 24 Sudoeste 0 -- -- 82
2021-02-04 19:00:00 9.6 15 Sudoeste 28 Sudoeste 0 -- -- 74
2021-02-04 18:00:00 11.4 18 Sur 32 Sur 0 -- -- 66
2021-02-04 17:00:00 13.5 15 Sur 37 Sur 0 -- -- 56
2021-02-04 16:00:00 14.9 21 Sur 34 Sur 0 -- -- 47
2021-02-04 15:00:00 15 22 Sur 36 Sur 0 -- -- 47
2021-02-04 14:00:00 14.6 12 Sudeste 24 Este 0 -- -- 64
2021-02-04 13:00:00 13.9 15 Sudeste 30 Este 0 -- -- 66
2021-02-04 12:00:00 11.8 15 Sudeste 23 Sudeste 0 -- -- 75
2021-02-04 11:00:00 10 8 Sudeste 17 Sudeste 0 -- -- 87
2021-02-04 10:00:00 8.9 6 Sudeste 10 Sudeste 0 -- -- 96
2021-02-04 09:00:00 6.9 0 Calma 5 Oeste 0 -- -- 98
2021-02-04 08:00:00 7 3 Oeste 9 Oeste 0 -- -- 97
2021-02-04 07:00:00 7.9 5 Sudeste 9 Sudeste 0 -- -- 96
2021-02-04 06:00:00 7.8 3 Sur 12 Sur 0 -- -- 97
2021-02-04 05:00:00 8 8 Sudeste 13 Sudeste 0 -- -- 96
2021-02-04 04:00:00 8 8 Sur 14 Sudeste 0 -- -- 96
2021-02-04 03:00:00 8.1 5 Sur 12 Sur 0 -- -- 95
2021-02-04 02:00:00 8.7 6 Sur 16 Sudoeste 0 -- -- 89
2021-02-04 01:00:00 8.7 7 Sur 24 Sur 0 -- -- 90
2021-02-04 00:00:00 8.7 17 Sur 29 Sur 0 -- -- 90
2021-02-03 23:00:00 8.8 10 Sur 15 Sudeste 0 -- -- 91
2021-02-03 22:00:00 8.1 4 Nordeste 8 Nordeste 0 -- -- 92
2021-02-03 21:00:00 8.2 3 Sudoeste 19 Sur 0 -- -- 90
2021-02-03 20:00:00 7.4 12 Sudoeste 21 Sur 0 -- -- 90
2021-02-03 19:00:00 7.7 12 Sudoeste 23 Sur 0 -- -- 88
2021-02-03 18:00:00 9.3 17 Sudoeste 37 Sudoeste 0 -- -- 82
2021-02-03 17:00:00 10.8 22 Sudoeste 36 Sudoeste 0 -- -- 77
2021-02-03 16:00:00 10.2 22 Sudoeste 39 Sudoeste 0 -- -- 78
2021-02-03 15:00:00 10.3 20 Sudoeste 44 Sudoeste 0 -- -- 81
2021-02-03 14:00:00 9.6 29 Sudoeste 51 Sur 0 -- -- 81
2021-02-03 13:00:00 10.2 30 Sudoeste 52 Sudoeste 0 -- -- 79
2021-02-03 12:00:00 10.1 32 Sudoeste 57 Sudoeste 0 -- -- 79
2021-02-03 11:00:00 9 31 Sudoeste 58 Sudoeste 0 -- -- 80
2021-02-03 10:00:00 8 37 Sudoeste 60 Sudoeste 0 -- -- 84
2021-02-03 09:00:00 6.3 38 Sudoeste 65 Sudoeste 0 -- -- 88
2021-02-03 08:00:00 6.1 35 Sudoeste 58 Sudoeste 0 -- -- 89
2021-02-03 07:00:00 6 32 Sudoeste 55 Sur 0 -- -- 89
2021-02-03 06:00:00 6 30 Sudoeste 55 Sudoeste 0 -- -- 86
2021-02-03 05:00:00 6.1 30 Sudoeste 56 Sur 0 -- -- 85
2021-02-03 04:00:00 6.2 32 Sudoeste 55 Sudoeste 0 -- -- 83
2021-02-03 03:00:00 6.5 31 Sudoeste 52 Sudoeste 0 -- -- 84
2021-02-03 02:00:00 7.7 20 Sudoeste 44 Sudoeste 0 -- -- 82
2021-02-03 01:00:00 8.2 28 Sudoeste 47 Sudoeste 0 -- -- 81
2021-02-03 00:00:00 8.5 28 Sudoeste 49 Sudoeste 0 -- -- 83
2021-02-02 23:00:00 8.3 30 Sudoeste 49 Sudoeste 0 -- -- 83
2021-02-02 22:00:00 8.2 27 Sudoeste 45 Sudoeste 0 -- -- 83
2021-02-02 21:00:00 8.7 27 Sudoeste 46 Sudoeste 0 -- -- 84
2021-02-02 20:00:00 8.9 14 Sudoeste 30 Sudoeste 0 -- -- 86
2021-02-02 19:00:00 8.1 22 Sudoeste 36 Sudoeste 0 -- -- 86
2021-02-02 18:00:00 9.1 24 Sur 43 Sur 0 -- -- 83
2021-02-02 17:00:00 10.1 31 Sudoeste 43 Sudoeste 0 -- -- 77
2021-02-02 16:00:00 11.1 26 Sudoeste 40 Sudoeste 0 -- -- 73
2021-02-02 15:00:00 11.4 25 Sudoeste 42 Sudoeste 0 -- -- 74
2021-02-02 14:00:00 11.3 24 Sudoeste 36 Sur 0 -- -- 77
2021-02-02 13:00:00 11.3 23 Sudoeste 35 Sudoeste 0 -- -- 76
2021-02-02 12:00:00 10.4 19 Sudoeste 36 Sudoeste 0 -- -- 78
2021-02-02 11:00:00 9.1 21 Sudoeste 33 Sur 0 -- -- 86
2021-02-02 10:00:00 7.6 22 Sudoeste 35 Sudoeste 0 -- -- 91
2021-02-02 09:00:00 6.7 14 Sudoeste 32 Sudoeste 0 -- -- 94
2021-02-02 08:00:00 7 21 Sudoeste 41 Oeste 0 -- -- 95
2021-02-02 07:00:00 8.5 24 Oeste 32 Oeste 0 -- -- 91
2021-02-02 06:00:00 8.4 24 Oeste 42 Oeste 0 -- -- 91
2021-02-02 05:00:00 8.4 28 Oeste 44 Oeste 0 -- -- 92
2021-02-02 04:00:00 7.1 23 Oeste 36 Oeste 0 -- -- 97
2021-02-02 03:00:00 5.7 11 Oeste 16 Oeste 0 -- -- 91
2021-02-02 02:00:00 6.4 5 Sudoeste 12 Oeste 0 -- -- 89
2021-02-02 01:00:00 6.4 9 Sudoeste 21 Sudoeste 0 -- -- 89
2021-02-02 00:00:00 5 10 Oeste 22 Oeste 0 -- -- 93
2021-02-01 23:00:00 6.7 9 Oeste 21 Oeste 0 -- -- 90
2021-02-01 22:00:00 6.5 14 Oeste 37 Oeste 0 -- -- 88
2021-02-01 21:00:00 8.1 25 Oeste 34 Oeste 0 -- -- 83
2021-02-01 20:00:00 8.5 18 Oeste 32 Oeste 0 -- -- 81
2021-02-01 19:00:00 9 26 Oeste 42 Oeste 0 -- -- 77
2021-02-01 18:00:00 9.6 33 Oeste 49 Oeste 0 -- -- 76
2021-02-01 17:00:00 10.1 30 Oeste 48 Oeste 0 -- -- 75
2021-02-01 16:00:00 10.5 32 Oeste 45 Oeste 0 -- -- 75
2021-02-01 15:00:00 10.5 28 Oeste 46 Oeste 0 -- -- 76
2021-02-01 14:00:00 9.7 25 Oeste 47 Oeste 0 -- -- 78
2021-02-01 13:00:00 9.6 32 Oeste 53 Oeste 0 -- -- 77
2021-02-01 12:00:00 9.6 30 Oeste 64 Oeste 0 -- -- 76
2021-02-01 11:00:00 9.3 44 Oeste 69 Oeste 0 -- -- 77
2021-02-01 10:00:00 8.1 46 Oeste 65 Oeste 0 -- -- 78
2021-02-01 09:00:00 6.7 32 Oeste 57 Oeste 0 -- -- 83
2021-02-01 08:00:00 6.6 35 Oeste 60 Oeste 0 -- -- 82
2021-02-01 07:00:00 6.7 36 Oeste 73 Oeste 0 -- -- 82
2021-02-01 06:00:00 7 48 Oeste 78 Oeste 0 -- -- 79
2021-02-01 05:00:00 7.3 46 Oeste 65 Oeste 0 -- -- 79
2021-02-01 04:00:00 7.5 42 Oeste 64 Oeste 0 -- -- 79
2021-02-01 03:00:00 7.9 41 Oeste 70 Oeste 0 -- -- 79
2021-02-01 02:00:00 8.5 43 Oeste 69 Oeste 0 -- -- 77
2021-02-01 01:00:00 8.9 42 Oeste 68 Oeste 0 -- -- 78
2021-02-01 00:00:00 9.5 45 Oeste 73 Oeste 0 -- -- 75
2021-01-31 23:00:00 9.6 44 Oeste 80 Oeste 0 -- -- 75
2021-01-31 22:00:00 10.1 47 Oeste 84 Oeste 0.2 -- -- 72
2021-01-31 21:00:00 10.2 47 Oeste 69 Oeste 0 -- -- 74
2021-01-31 20:00:00 10.2 38 Oeste 56 Oeste 0 -- -- 78
2021-01-31 19:00:00 10.2 27 Sudoeste 42 Oeste 0 -- -- 78
2021-01-31 18:00:00 10.2 19 Oeste 51 Oeste 0 -- -- 85
2021-01-31 17:00:00 10.3 27 Oeste 49 Oeste 0 -- -- 85
2021-01-31 16:00:00 10.5 30 Oeste 45 Oeste 0 -- -- 81
2021-01-31 15:00:00 9.5 29 Oeste 49 Oeste 0 -- -- 87
2021-01-31 14:00:00 8.5 29 Oeste 45 Oeste 0 -- -- 91
2021-01-31 13:00:00 8.4 25 Oeste 39 Oeste 0 -- -- 88
2021-01-31 12:00:00 7.2 28 Oeste 43 Oeste 0 -- -- 88
2021-01-31 11:00:00 6.4 28 Oeste 42 Oeste 0 -- -- 89
2021-01-31 10:00:00 5.1 25 Oeste 46 Oeste 0 -- -- 88
2021-01-31 09:00:00 4.7 33 Oeste 46 Oeste 0 -- -- 87
2021-01-31 08:00:00 4.1 23 Oeste 42 Oeste 0 -- -- 87
2021-01-31 07:00:00 4.4 27 Oeste 43 Oeste 0 -- -- 86
2021-01-31 06:00:00 4.2 30 Oeste 46 Oeste 0 -- -- 86
2021-01-31 05:00:00 4.4 34 Oeste 59 Oeste 0 -- -- 85
2021-01-31 04:00:00 4.5 40 Oeste 55 Oeste 0 -- -- 86
2021-01-31 03:00:00 4.5 31 Oeste 50 Oeste 0 -- -- 85
2021-01-31 02:00:00 4.4 29 Oeste 59 Oeste 0 -- -- 85
2021-01-31 01:00:00 4.5 37 Oeste 63 Oeste 0 -- -- 84
2021-01-31 00:00:00 4.3 38 Oeste 54 Oeste 0 -- -- 85
2021-01-30 23:00:00 4 32 Oeste 52 Oeste 0.2 -- -- 87
2021-01-30 22:00:00 4.1 33 Oeste 50 Oeste 0 -- -- 92
2021-01-30 21:00:00 4.8 27 Oeste 45 Oeste 0 -- -- 88
2021-01-30 20:00:00 4.3 35 Oeste 62 Oeste 0.2 -- -- 88
2021-01-30 19:00:00 4.8 27 Oeste 60 Oeste 0.2 -- -- 86
2021-01-30 18:00:00 4.8 46 Oeste 74 Oeste 0.4 -- -- 87
2021-01-30 17:00:00 6.7 40 Oeste 63 Oeste 0.2 -- -- 77
2021-01-30 16:00:00 6.8 39 Oeste 72 Oeste 0 -- -- 76
2021-01-30 15:00:00 6.4 53 Oeste 80 Oeste 0 -- -- 79
2021-01-30 14:00:00 8.7 49 Oeste 73 Oeste 0 -- -- 66
2021-01-30 13:00:00 7.6 44 Oeste 69 Oeste 0.2 -- -- 76
2021-01-30 12:00:00 6.6 38 Oeste 64 Oeste 0 -- -- 88
2021-01-30 11:00:00 7.6 39 Oeste 57 Oeste 0 -- -- 76
2021-01-30 10:00:00 6.6 30 Oeste 62 Oeste 0 -- -- 87
2021-01-30 09:00:00 6 29 Oeste 54 Oeste 0.4 -- -- 88
2021-01-30 08:00:00 6.7 35 Oeste 53 Oeste 0 -- -- 88
2021-01-30 07:00:00 6.3 20 Oeste 77 Oeste 1.8 -- -- 88
2021-01-30 06:00:00 7.3 21 Sudoeste 37 Sudoeste 0.6 -- -- 93
2021-01-30 05:00:00 7.7 13 Sudoeste 30 Sudoeste 0 -- -- 86
2021-01-30 04:00:00 7.6 18 Sudoeste 36 Sudoeste 0 -- -- 92
2021-01-30 03:00:00 7.4 18 Sudoeste 37 Sudoeste 0 -- -- 95
2021-01-30 02:00:00 7.7 21 Sudoeste 37 Sudoeste 0 -- -- 92
2021-01-30 01:00:00 6.8 17 Sudoeste 33 Sudoeste 0 -- -- 95
2021-01-30 00:00:00 6.4 20 Sur 32 Sur 0 -- -- 96
2021-01-29 23:00:00 6 19 Sudoeste 33 Sudoeste 0 -- -- 97
2021-01-29 22:00:00 6.1 18 Sudoeste 30 Sudoeste 0 -- -- 97
2021-01-29 21:00:00 6.5 21 Sudoeste 30 Sudoeste 0 -- -- 96
2021-01-29 20:00:00 7 14 Sudoeste 28 Sudoeste 0 -- -- 97
2021-01-29 19:00:00 7.3 15 Sudoeste 21 Sur 0 -- -- 94
2021-01-29 18:00:00 10.7 9 Sudoeste 18 Oeste 0 -- -- 83
2021-01-29 17:00:00 11.4 14 Oeste 22 Oeste 0 -- -- 83
2021-01-29 16:00:00 11.1 12 Sudoeste 26 Oeste 0 -- -- 82
2021-01-29 15:00:00 10.8 19 Oeste 30 Oeste 0 -- -- 84
2021-01-29 14:00:00 10.8 24 Oeste 37 Oeste 0 -- -- 84
2021-01-29 13:00:00 10 22 Oeste 41 Oeste 0 -- -- 89
2021-01-29 12:00:00 9.6 17 Oeste 39 Oeste 0 -- -- 92
2021-01-29 11:00:00 8.9 18 Oeste 30 Oeste 0 -- -- 96
2021-01-29 10:00:00 8.5 13 Oeste 31 Oeste 0 -- -- 97
2021-01-29 09:00:00 8.3 18 Oeste 25 Oeste 0 -- -- 96
2021-01-29 08:00:00 7.8 15 Sudoeste 23 Sudoeste 0 -- -- 95
2021-01-29 07:00:00 5.7 8 Oeste 19 Sudoeste 0 -- -- 97
2021-01-29 06:00:00 6.8 9 Sudoeste 22 Sudoeste 0 -- -- 94
2021-01-29 05:00:00 7.3 9 Sudoeste 15 Sudoeste 0 -- -- 94
2021-01-29 04:00:00 7.3 9 Sudoeste 28 Sudoeste 0 -- -- 95
2021-01-29 03:00:00 7.2 19 Sudoeste 28 Sudoeste 0 -- -- 98
2021-01-29 02:00:00 7.1 16 Sudoeste 30 Sur 0 -- -- 98
2021-01-29 01:00:00 7.1 13 Sudoeste 29 Sudoeste 0 -- -- 99
2021-01-29 00:00:00 7.2 10 Sudoeste 21 Sudoeste 0 -- -- 98
2021-01-28 23:00:00 7.2 4 Sudoeste 17 Sudoeste 0 -- -- 99
2021-01-28 22:00:00 7.5 6 Sudoeste 24 Sudoeste 0 -- -- 99
2021-01-28 21:00:00 7.7 17 Sudoeste 33 Sudoeste 0 -- -- 99
2021-01-28 20:00:00 7.8 22 Sudoeste 31 Sudoeste 0 -- -- 98
2021-01-28 19:00:00 8.3 9 Sudoeste 31 Sudoeste 0 -- -- 96
2021-01-28 18:00:00 9.7 18 Sudoeste 29 Sudoeste 0 -- -- 92
2021-01-28 17:00:00 13.5 19 Sudoeste 33 Sudoeste 0 -- -- 79
2021-01-28 16:00:00 14.6 18 Sudoeste 35 Sudoeste 0 -- -- 75
2021-01-28 15:00:00 15.5 17 Sudoeste 31 Sur 0 -- -- 76
2021-01-28 14:00:00 14.4 13 Sudoeste 27 Sudoeste 0 -- -- 78
2021-01-28 13:00:00 13.7 15 Sudoeste 26 Sudoeste 0 -- -- 79
2021-01-28 12:00:00 11.7 11 Sudoeste 23 Sudoeste 0 -- -- 86
2021-01-28 11:00:00 11.1 14 Sudoeste 22 Sudoeste 0 -- -- 86
2021-01-28 10:00:00 8.3 12 Sudoeste 22 Sudoeste 0 -- -- 97
2021-01-28 09:00:00 6.4 11 Sudoeste 17 Sudoeste 0 -- -- 100
2021-01-28 08:00:00 5.8 9 Sudoeste 22 Sudoeste 0 -- -- 100
2021-01-28 07:00:00 7.2 15 Sudoeste 23 Sudoeste 0 -- -- 99
2021-01-28 06:00:00 7.4 11 Sudoeste 17 Oeste 0 -- -- 98
2021-01-28 05:00:00 7.9 11 Sudoeste 19 Sudoeste 0 -- -- 96
2021-01-28 04:00:00 8.6 13 Sudoeste 21 Sudoeste 0 -- -- 95
2021-01-28 03:00:00 8.6 13 Sudoeste 23 Sudoeste 0 -- -- 93
2021-01-28 02:00:00 8.5 13 Sudoeste 19 Sudoeste 0 -- -- 92
2021-01-28 01:00:00 8 13 Oeste 24 Sudoeste 0 -- -- 94
2021-01-28 00:00:00 8.7 14 Sudoeste 24 Sudoeste 0 -- -- 97
2021-01-27 23:00:00 8.2 12 Oeste 17 Sudoeste 0 -- -- 100
2021-01-27 22:00:00 7.4 9 Oeste 13 Oeste 0 -- -- 99
2021-01-27 21:00:00 6.8 3 Oeste 13 Noroeste 0 -- -- 99
2021-01-27 20:00:00 6.4 5 Oeste 10 Oeste 0 -- -- 97
2021-01-27 19:00:00 8.8 3 Oeste 23 Oeste 0 -- -- 95
2021-01-27 18:00:00 10.9 17 Oeste 32 Oeste 0 -- -- 89
2021-01-27 17:00:00 13.2 20 Oeste 38 Oeste 0 -- -- 79
2021-01-27 16:00:00 12.9 28 Oeste 38 Oeste 0 -- -- 81
2021-01-27 15:00:00 12.3 21 Oeste 35 Oeste 0 -- -- 85
2021-01-27 14:00:00 11.7 22 Oeste 37 Oeste 0 -- -- 87
2021-01-27 13:00:00 11.1 23 Oeste 37 Oeste 0 -- -- 91
2021-01-27 12:00:00 10.8 27 Oeste 46 Oeste 0 -- -- 94
2021-01-27 11:00:00 10.4 22 Oeste 33 Oeste 0 -- -- 97
2021-01-27 10:00:00 10.1 16 Oeste 30 Oeste 0 -- -- 99
2021-01-27 09:00:00 9.7 18 Oeste 27 Oeste 0.2 -- -- 100
2021-01-27 08:00:00 9.7 13 Oeste 21 Oeste 0 -- -- 100
2021-01-27 07:00:00 9.7 9 Oeste 26 Oeste 0.4 -- -- 100
2021-01-27 06:00:00 9.9 16 Oeste 27 Oeste 0.2 -- -- 100
2021-01-27 05:00:00 9.7 11 Oeste 17 Oeste 0.2 -- -- 100
2021-01-27 04:00:00 9.5 8 Oeste 17 Oeste 0.2 -- -- 100
2021-01-27 03:00:00 9 6 Oeste 9 Oeste 0 -- -- 100
2021-01-27 02:00:00 8.9 4 Oeste 9 Oeste 0 -- -- 100
2021-01-27 01:00:00 9.1 5 Oeste 12 Oeste 0 -- -- 100
2021-01-27 00:00:00 8.8 6 Oeste 9 Oeste 0 -- -- 100
2021-01-26 23:00:00 8.8 3 Noroeste 8 Oeste 0 -- -- 100
2021-01-26 22:00:00 8.9 4 Oeste 17 Oeste 0 -- -- 100
2021-01-26 21:00:00 9 10 Oeste 15 Oeste 0.2 -- -- 100
2021-01-26 20:00:00 8.8 6 Oeste 15 Oeste 0.2 -- -- 100
2021-01-26 19:00:00 8.8 8 Oeste 12 Oeste 0.4 -- -- 99
2021-01-26 18:00:00 9.1 9 Noroeste 15 Oeste 0.2 -- -- 99
2021-01-26 17:00:00 9.4 9 Oeste 16 Noroeste 0.2 -- -- 99
2021-01-26 16:00:00 9.3 11 Oeste 19 Oeste 0 -- -- 99
2021-01-26 15:00:00 8.5 5 Noroeste 8 Oeste 0 -- -- 99
2021-01-26 14:00:00 8.3 5 Noroeste 11 Oeste 0.2 -- -- 99
2021-01-26 13:00:00 7.8 7 Oeste 12 Sudoeste 0 -- -- 100
2021-01-26 12:00:00 6.5 4 Oeste 9 Oeste 0 -- -- 100
2021-01-26 11:00:00 5.3 7 Oeste 15 Oeste 0 -- -- 100
2021-01-26 10:00:00 4.3 9 Oeste 15 Oeste 0 -- -- 100
2021-01-26 09:00:00 3.3 4 Oeste 9 Oeste 0 -- -- 100
2021-01-26 08:00:00 2.9 4 Noroeste 7 Noroeste 0 -- -- 100
2021-01-26 07:00:00 2.5 2 Noroeste 3 Oeste 0 -- -- 100
2021-01-26 06:00:00 2.1 3 Norte 6 Norte 0 -- -- 100
2021-01-26 05:00:00 0.9 3 Oeste 7 Oeste 0 -- -- 100
2021-01-26 04:00:00 2 3 Oeste 15 Oeste 0 -- -- 100
2021-01-26 03:00:00 2.9 13 Oeste 19 Oeste 0 -- -- 99
2021-01-26 02:00:00 3.6 11 Oeste 17 Oeste 0 -- -- 98
2021-01-26 01:00:00 4.1 9 Noroeste 15 Oeste 0 -- -- 96
2021-01-26 00:00:00 4.5 10 Oeste 14 Oeste 0 -- -- 96
2021-01-25 23:00:00 4.8 10 Oeste 21 Oeste 0 -- -- 96
2021-01-25 22:00:00 5 7 Oeste 16 Noroeste 0 -- -- 98
2021-01-25 21:00:00 5.6 10 Noroeste 18 Noroeste 0 -- -- 98
2021-01-25 20:00:00 5.3 3 Oeste 10 Noroeste 0 -- -- 99
2021-01-25 19:00:00 5.6 6 Noroeste 15 Oeste 0 -- -- 98
2021-01-25 18:00:00 6.3 3 Noroeste 8 Oeste 0 -- -- 96
2021-01-25 17:00:00 6.6 3 Oeste 18 Norte 1.2 -- -- 94
2021-01-25 16:00:00 6.3 18 Norte 49 Oeste 2.6 -- -- 93
2021-01-25 15:00:00 9.9 31 Oeste 50 Sudoeste 0.4 -- -- 91
2021-01-25 14:00:00 10 33 Oeste 55 Oeste 0 -- -- 90
2021-01-25 13:00:00 11.1 40 Oeste 61 Oeste 0.2 -- -- 84
2021-01-25 12:00:00 10.7 34 Oeste 51 Sudoeste 0 -- -- 85
2021-01-25 11:00:00 8.1 27 Sudoeste 44 Sudoeste 0 -- -- 92
2021-01-25 10:00:00 7.5 28 Sudoeste 53 Sudoeste 0 -- -- 93
2021-01-25 09:00:00 6.6 27 Sudoeste 42 Sudoeste 0 -- -- 95
2021-01-25 08:00:00 6.3 21 Sudoeste 36 Sudoeste 0.2 -- -- 94
2021-01-25 07:00:00 5.7 23 Sudoeste 37 Sudoeste 1 -- -- 95
2021-01-25 06:00:00 5.2 19 Sudoeste 31 Sudoeste 2 -- -- 96
2021-01-25 05:00:00 4.3 6 Sudoeste 12 Sudoeste 1.2 -- -- 97
2021-01-25 04:00:00 4.1 4 Sudoeste 23 Sudoeste 0.2 -- -- 95
2021-01-25 03:00:00 5.8 14 Sudoeste 26 Sudoeste 0 -- -- 80
2021-01-25 02:00:00 5.8 19 Oeste 32 Sudoeste 0 -- -- 80
2021-01-25 01:00:00 5.9 21 Oeste 31 Sudoeste 0 -- -- 81
2021-01-25 00:00:00 6 24 Oeste 38 Sudoeste 0 -- -- 80